createdAt,value
2018-11-23T00:00:23.702Z,942.91
2018-11-23T00:01:31.767Z,942.88
2018-11-23T00:02:39.822Z,942.90
2018-11-23T00:03:47.893Z,942.85
2018-11-23T00:04:56.030Z,942.87
2018-11-23T00:06:03.978Z,942.89
2018-11-23T00:07:12.043Z,942.88
2018-11-23T00:08:20.094Z,942.94
2018-11-23T00:09:28.139Z,942.89
2018-11-23T00:10:36.299Z,942.91
2018-11-23T00:11:44.252Z,942.93
2018-11-23T00:12:52.314Z,942.93
2018-11-23T00:14:00.397Z,942.92
2018-11-23T00:15:08.440Z,942.95
2018-11-23T00:16:16.577Z,942.97
2018-11-23T00:17:24.558Z,942.94
2018-11-23T00:18:32.744Z,942.96
2018-11-23T00:19:40.757Z,942.97
2018-11-23T00:20:48.989Z,943.02
2018-11-23T00:21:57.017Z,943.00
2018-11-23T00:23:04.988Z,943.01
2018-11-23T00:24:12.893Z,943.04
2018-11-23T00:25:20.938Z,943.04
2018-11-23T00:26:29.081Z,943.05
2018-11-23T00:27:37.132Z,943.04
2018-11-23T00:28:45.091Z,943.05
2018-11-23T00:29:53.152Z,943.03
2018-11-23T00:31:01.245Z,943.04
2018-11-23T00:32:09.256Z,943.00
2018-11-23T00:33:17.430Z,942.99
2018-11-23T00:34:25.379Z,942.99
2018-11-23T00:35:33.435Z,943.01
2018-11-23T00:36:41.595Z,943.01
2018-11-23T00:37:49.639Z,943.00
2018-11-23T00:38:57.590Z,942.98
2018-11-23T00:40:05.660Z,943.00
2018-11-23T00:41:13.820Z,943.03
2018-11-23T00:42:21.760Z,943.08
2018-11-23T00:43:29.927Z,943.12
2018-11-23T00:44:37.877Z,943.14
2018-11-23T00:45:45.933Z,943.09
2018-11-23T00:46:54.012Z,943.11
2018-11-23T00:48:02.027Z,943.10
2018-11-23T00:49:10.170Z,943.12
2018-11-23T00:50:18.163Z,943.14
2018-11-23T00:51:26.207Z,943.11
2018-11-23T00:52:34.301Z,943.10
2018-11-23T00:53:42.311Z,943.14
2018-11-23T00:54:50.454Z,943.14
2018-11-23T00:55:58.434Z,943.15
2018-11-23T00:57:06.486Z,943.11
2018-11-23T00:58:14.531Z,943.13
2018-11-23T00:59:22.634Z,943.12
2018-11-23T01:00:30.761Z,943.11
2018-11-23T01:01:38.714Z,943.11
2018-11-23T01:02:46.756Z,943.13
2018-11-23T01:03:54.833Z,943.12
2018-11-23T01:05:02.872Z,943.17
2018-11-23T01:06:11.034Z,943.15
2018-11-23T01:07:18.987Z,943.21
2018-11-23T01:08:27.033Z,943.23
2018-11-23T01:09:35.098Z,943.26
2018-11-23T01:10:43.166Z,943.28
2018-11-23T01:11:51.301Z,943.31
2018-11-23T01:12:59.269Z,943.34
2018-11-23T01:14:07.324Z,943.34
2018-11-23T01:15:15.415Z,943.34
2018-11-23T01:16:23.433Z,943.38
2018-11-23T01:17:31.578Z,943.37
2018-11-23T01:18:39.534Z,943.40
2018-11-23T01:19:47.589Z,943.40
2018-11-23T01:20:55.646Z,943.41
2018-11-23T01:22:03.693Z,943.45
2018-11-23T01:23:11.843Z,943.41
2018-11-23T01:24:19.828Z,943.39
2018-11-23T01:25:27.887Z,943.38
2018-11-23T01:26:35.930Z,943.40
2018-11-23T01:27:44.001Z,943.42
2018-11-23T01:28:52.033Z,943.39
2018-11-23T01:30:00.135Z,943.41
2018-11-23T01:31:08.148Z,943.39
2018-11-23T01:32:16.211Z,943.37
2018-11-23T01:33:24.359Z,943.39
2018-11-23T01:34:32.321Z,943.41
2018-11-23T01:35:40.383Z,943.42
2018-11-23T01:36:48.565Z,943.38
2018-11-23T01:37:56.519Z,943.36
2018-11-23T01:39:04.623Z,943.38
2018-11-23T01:40:12.597Z,943.37
2018-11-23T01:41:20.647Z,943.33
2018-11-23T01:42:28.700Z,943.31
2018-11-23T01:43:36.754Z,943.34
2018-11-23T01:44:44.908Z,943.33
2018-11-23T01:45:52.869Z,943.30
2018-11-23T01:47:00.936Z,943.31
2018-11-23T01:48:08.981Z,943.28
2018-11-23T01:49:17.033Z,943.29
2018-11-23T01:50:25.190Z,943.23
2018-11-23T01:51:33.135Z,943.19
2018-11-23T01:52:41.290Z,943.17
2018-11-23T01:53:49.254Z,943.14
2018-11-23T01:54:57.429Z,943.11
2018-11-23T01:56:05.557Z,943.10
2018-11-23T01:57:13.413Z,943.06
2018-11-23T01:58:21.533Z,943.05
2018-11-23T01:59:29.582Z,943.04
2018-11-23T02:00:37.693Z,943.02
2018-11-23T02:01:45.834Z,943.04
2018-11-23T02:02:53.690Z,943.07
2018-11-23T02:04:01.869Z,943.05
2018-11-23T02:05:09.888Z,943.04
2018-11-23T02:06:17.955Z,943.05
2018-11-23T02:07:26.125Z,943.06
2018-11-23T02:08:33.946Z,943.08
2018-11-23T02:09:42.033Z,943.03
2018-11-23T02:10:50.096Z,943.08
2018-11-23T02:11:58.148Z,943.08
2018-11-23T02:13:06.455Z,943.07
2018-11-23T02:14:14.246Z,943.07
2018-11-23T02:15:22.323Z,943.07
2018-11-23T02:16:30.367Z,943.06
2018-11-23T02:17:38.586Z,943.09
2018-11-23T02:18:46.585Z,943.05
2018-11-23T02:19:54.651Z,943.06
2018-11-23T02:21:02.685Z,943.04
2018-11-23T02:22:10.743Z,943.08
2018-11-23T02:23:18.901Z,943.03
2018-11-23T02:24:26.875Z,943.05
2018-11-23T02:25:34.828Z,943.01
2018-11-23T02:26:42.867Z,943.05
2018-11-23T02:27:51.025Z,943.04
2018-11-23T02:28:58.989Z,943.01
2018-11-23T02:30:07.057Z,943.02
2018-11-23T02:31:15.101Z,942.98
2018-11-23T02:32:23.150Z,943.01
2018-11-23T02:33:31.209Z,943.02
2018-11-23T02:34:39.266Z,943.01
2018-11-23T02:35:47.312Z,943.04
2018-11-23T02:36:55.366Z,943.02
2018-11-23T02:38:03.664Z,943.05
2018-11-23T02:39:11.922Z,943.07
2018-11-23T02:40:19.532Z,943.05
2018-11-23T02:41:27.611Z,943.09
2018-11-23T02:42:35.745Z,943.08
2018-11-23T02:43:43.695Z,943.10
2018-11-23T02:44:51.774Z,943.10
2018-11-23T02:45:59.810Z,943.13
2018-11-23T02:47:07.878Z,943.12
2018-11-23T02:48:16.033Z,943.10
2018-11-23T02:49:23.972Z,943.13
2018-11-23T02:50:32.043Z,943.09
2018-11-23T02:51:40.122Z,943.08
2018-11-23T02:52:48.161Z,943.09
2018-11-23T02:53:56.307Z,943.12
2018-11-23T02:55:04.693Z,943.09
2018-11-23T02:56:12.335Z,943.11
2018-11-23T02:57:20.374Z,943.15
2018-11-23T02:58:28.434Z,943.10
2018-11-23T02:59:36.959Z,943.11
2018-11-23T03:00:44.561Z,943.11
2018-11-23T03:01:52.638Z,943.08
2018-11-23T03:03:00.662Z,943.14
2018-11-23T03:04:08.730Z,943.13
2018-11-23T03:05:16.882Z,943.11
2018-11-23T03:06:24.844Z,943.11
2018-11-23T03:07:32.902Z,943.11
2018-11-23T03:08:40.968Z,943.10
2018-11-23T03:09:49.030Z,943.09
2018-11-23T03:10:57.166Z,943.13
2018-11-23T03:12:05.129Z,943.17
2018-11-23T03:13:13.163Z,943.15
2018-11-23T03:14:21.237Z,943.17
2018-11-23T03:15:29.283Z,943.15
2018-11-23T03:16:37.786Z,943.17
2018-11-23T03:17:45.408Z,943.14
2018-11-23T03:18:53.460Z,943.17
2018-11-23T03:20:01.526Z,943.18
2018-11-23T03:21:09.577Z,943.20
2018-11-23T03:22:17.723Z,943.21
2018-11-23T03:23:25.681Z,943.21
2018-11-23T03:24:33.722Z,943.26
2018-11-23T03:25:41.801Z,943.25
2018-11-23T03:26:49.954Z,943.24
2018-11-23T03:27:58.009Z,943.21
2018-11-23T03:29:05.970Z,943.23
2018-11-23T03:30:14.013Z,943.21
2018-11-23T03:31:22.084Z,943.25
2018-11-23T03:32:30.242Z,943.28
2018-11-23T03:33:38.343Z,943.25
2018-11-23T03:34:46.246Z,943.22
2018-11-23T03:35:54.355Z,943.25
2018-11-23T03:37:02.371Z,943.26
2018-11-23T03:38:10.512Z,943.24
2018-11-23T03:39:18.468Z,943.25
2018-11-23T03:40:26.546Z,943.24
2018-11-23T03:41:34.595Z,943.23
2018-11-23T03:42:42.733Z,943.25
2018-11-23T03:43:50.700Z,943.22
2018-11-23T03:44:58.765Z,943.22
2018-11-23T03:46:06.882Z,943.24
2018-11-23T03:47:14.971Z,943.19
2018-11-23T03:48:23.017Z,943.19
2018-11-23T03:49:31.085Z,943.20
2018-11-23T03:50:39.085Z,943.22
2018-11-23T03:51:47.163Z,943.26
2018-11-23T03:52:55.250Z,943.24
2018-11-23T03:54:03.407Z,943.26
2018-11-23T03:55:11.332Z,943.27
2018-11-23T03:56:19.454Z,943.28
2018-11-23T03:57:27.543Z,943.27
2018-11-23T03:58:35.452Z,943.31
2018-11-23T03:59:43.809Z,943.32
2018-11-23T04:00:51.621Z,943.29
2018-11-23T04:01:59.604Z,943.32
2018-11-23T04:03:07.756Z,943.31
2018-11-23T04:04:15.789Z,943.32
2018-11-23T04:05:24.005Z,943.26
2018-11-23T04:06:31.940Z,943.32
2018-11-23T04:07:39.935Z,943.34
2018-11-23T04:08:47.921Z,943.31
2018-11-23T04:09:56.013Z,943.33
2018-11-23T04:11:04.176Z,943.34
2018-11-23T04:12:12.123Z,943.34
2018-11-23T04:13:20.316Z,943.31
2018-11-23T04:14:28.237Z,943.31
2018-11-23T04:15:36.283Z,943.28
2018-11-23T04:16:44.439Z,943.25
2018-11-23T04:17:52.371Z,943.22
2018-11-23T04:19:00.425Z,943.18
2018-11-23T04:20:08.514Z,943.17
2018-11-23T04:21:16.566Z,943.21
2018-11-23T04:22:24.737Z,943.17
2018-11-23T04:23:32.691Z,943.14
2018-11-23T04:24:40.730Z,943.13
2018-11-23T04:25:48.802Z,943.11
2018-11-23T04:26:56.843Z,943.12
2018-11-23T04:28:05.004Z,943.15
2018-11-23T04:29:13.094Z,943.09
2018-11-23T04:30:21.011Z,943.13
2018-11-23T04:31:29.089Z,943.13
2018-11-23T04:32:37.180Z,943.09
2018-11-23T04:33:45.190Z,943.15
2018-11-23T04:34:53.259Z,943.12
2018-11-23T04:36:01.306Z,943.12
2018-11-23T04:37:09.363Z,943.10
2018-11-23T04:38:17.518Z,943.09
2018-11-23T04:39:25.477Z,943.07
2018-11-23T04:40:33.508Z,943.04
2018-11-23T04:41:46.180Z,943.05
2018-11-23T04:42:49.738Z,943.06
2018-11-23T04:43:57.793Z,943.04
2018-11-23T04:45:05.753Z,943.06
2018-11-23T04:46:13.807Z,943.07
2018-11-23T04:47:21.868Z,943.10
2018-11-23T04:48:29.903Z,943.10
2018-11-23T04:49:38.072Z,943.13
2018-11-23T04:50:46.037Z,943.08
2018-11-23T04:51:54.075Z,943.08
2018-11-23T04:53:02.140Z,943.10
2018-11-23T04:54:10.210Z,943.07
2018-11-23T04:55:18.362Z,943.10
2018-11-23T04:56:26.320Z,943.13
2018-11-23T04:57:34.466Z,943.15
2018-11-23T04:58:42.430Z,943.17
2018-11-23T04:59:50.530Z,943.16
2018-11-23T05:00:58.664Z,943.14
2018-11-23T05:02:06.597Z,943.12
2018-11-23T05:03:14.643Z,943.13
2018-11-23T05:04:22.711Z,943.12
2018-11-23T05:05:30.768Z,943.12
2018-11-23T05:06:38.931Z,943.12
2018-11-23T05:07:46.873Z,943.13
2018-11-23T05:08:54.963Z,943.13
2018-11-23T05:10:03.005Z,943.12
2018-11-23T05:11:11.042Z,943.08
2018-11-23T05:12:19.187Z,943.01
2018-11-23T05:13:27.257Z,942.95
2018-11-23T05:14:35.215Z,942.96
2018-11-23T05:15:43.261Z,942.91
2018-11-23T05:16:51.334Z,942.91
2018-11-23T05:17:59.584Z,942.90
2018-11-23T05:19:07.434Z,942.85
2018-11-23T05:20:15.851Z,942.78
2018-11-23T05:21:23.649Z,942.83
2018-11-23T05:22:31.700Z,942.85
2018-11-23T05:23:39.758Z,942.84
2018-11-23T05:24:47.831Z,942.87
2018-11-23T05:25:55.772Z,942.85
2018-11-23T05:27:03.825Z,942.87
2018-11-23T05:28:11.982Z,942.84
2018-11-23T05:29:19.944Z,942.85
2018-11-23T05:30:28.001Z,942.83
2018-11-23T05:31:36.055Z,942.87
2018-11-23T05:32:44.134Z,942.87
2018-11-23T05:33:52.156Z,942.83
2018-11-23T05:35:00.223Z,942.80
2018-11-23T05:36:08.280Z,942.82
2018-11-23T05:37:16.339Z,942.79
2018-11-23T05:38:24.476Z,942.78
2018-11-23T05:39:32.667Z,942.74
2018-11-23T05:40:40.492Z,942.76
2018-11-23T05:41:48.786Z,942.75
2018-11-23T05:42:56.701Z,942.73
2018-11-23T05:44:04.753Z,942.74
2018-11-23T05:45:12.716Z,942.69
2018-11-23T05:46:20.774Z,942.75
2018-11-23T05:47:28.866Z,942.73
2018-11-23T05:48:36.893Z,942.74
2018-11-23T05:49:45.026Z,942.73
2018-11-23T05:50:52.991Z,942.75
2018-11-23T05:52:01.062Z,942.77
2018-11-23T05:53:09.107Z,942.79
2018-11-23T05:54:17.171Z,942.84
2018-11-23T05:55:25.313Z,942.86
2018-11-23T05:56:33.248Z,942.89
2018-11-23T05:57:41.353Z,942.88
2018-11-23T05:58:49.489Z,942.87
2018-11-23T05:59:57.430Z,942.91
2018-11-23T06:01:05.975Z,942.89
2018-11-23T06:02:13.518Z,942.88
2018-11-23T06:03:21.612Z,942.83
2018-11-23T06:04:29.663Z,942.84
2018-11-23T06:05:37.717Z,942.84
2018-11-23T06:06:45.863Z,942.83
2018-11-23T06:07:54.023Z,942.79
2018-11-23T06:09:01.868Z,942.85
2018-11-23T06:10:09.933Z,942.86
2018-11-23T06:11:17.994Z,942.84
2018-11-23T06:12:26.146Z,942.84
2018-11-23T06:13:34.077Z,942.81
2018-11-23T06:14:42.247Z,942.84
2018-11-23T06:15:50.208Z,942.89
2018-11-23T06:16:58.266Z,942.94
2018-11-23T06:18:06.424Z,942.91
2018-11-23T06:19:14.364Z,942.94
2018-11-23T06:20:22.444Z,942.99
2018-11-23T06:21:30.490Z,942.95
2018-11-23T06:22:38.641Z,942.87
2018-11-23T06:23:46.609Z,942.85
2018-11-23T06:24:54.664Z,942.78
2018-11-23T06:26:02.709Z,942.75
2018-11-23T06:27:10.777Z,942.79
2018-11-23T06:28:19.795Z,942.77
2018-11-23T06:29:26.912Z,942.79
2018-11-23T06:30:35.038Z,942.81
2018-11-23T06:31:42.999Z,942.79
2018-11-23T06:32:51.045Z,942.80
2018-11-23T06:33:59.196Z,942.82
2018-11-23T06:35:07.139Z,942.83
2018-11-23T06:36:15.207Z,942.81
2018-11-23T06:37:23.245Z,942.83
2018-11-23T06:38:31.319Z,942.86
2018-11-23T06:39:39.473Z,942.85
2018-11-23T06:40:47.433Z,942.83
2018-11-23T06:41:55.497Z,942.79
2018-11-23T06:43:03.528Z,942.83
2018-11-23T06:44:11.600Z,942.81
2018-11-23T06:45:19.757Z,942.81
2018-11-23T06:46:27.805Z,942.80
2018-11-23T06:47:35.764Z,942.79
2018-11-23T06:48:43.797Z,942.81
2018-11-23T06:49:51.886Z,942.88
2018-11-23T06:51:00.035Z,942.84
2018-11-23T06:52:07.986Z,942.86
2018-11-23T06:53:16.046Z,942.84
2018-11-23T06:54:24.070Z,942.83
2018-11-23T06:55:32.165Z,942.81
2018-11-23T06:56:40.306Z,942.82
2018-11-23T06:57:48.267Z,942.85
2018-11-23T06:58:56.325Z,942.84
2018-11-23T07:00:04.382Z,942.84
2018-11-23T07:01:12.440Z,942.82
2018-11-23T07:02:20.540Z,942.82
2018-11-23T07:03:28.550Z,942.83
2018-11-23T07:04:36.610Z,942.84
2018-11-23T07:05:44.664Z,942.78
2018-11-23T07:06:52.728Z,942.76
2018-11-23T07:08:00.811Z,942.72
2018-11-23T07:09:08.822Z,942.68
2018-11-23T07:10:16.888Z,942.65
2018-11-23T07:11:24.943Z,942.65
2018-11-23T07:12:33.046Z,942.63
2018-11-23T07:13:41.054Z,942.65
2018-11-23T07:14:49.113Z,942.63
2018-11-23T07:15:57.170Z,942.69
2018-11-23T07:17:05.219Z,942.72
2018-11-23T07:18:13.338Z,942.73
2018-11-23T07:19:21.358Z,942.79
2018-11-23T07:20:29.384Z,942.76
2018-11-23T07:21:37.442Z,942.74
2018-11-23T07:22:45.592Z,942.77
2018-11-23T07:23:53.552Z,942.76
2018-11-23T07:25:01.623Z,942.74
2018-11-23T07:26:09.673Z,942.70
2018-11-23T07:27:17.731Z,942.72
2018-11-23T07:28:25.875Z,942.69
2018-11-23T07:29:33.825Z,942.67
2018-11-23T07:30:41.907Z,942.65
2018-11-23T07:31:49.954Z,942.64
2018-11-23T07:32:58.101Z,942.64
2018-11-23T07:34:06.154Z,942.61
2018-11-23T07:35:14.098Z,942.62
2018-11-23T07:36:22.178Z,942.69
2018-11-23T07:37:30.215Z,942.66
2018-11-23T07:38:38.284Z,942.72
2018-11-23T07:39:46.435Z,942.79
2018-11-23T07:40:54.406Z,942.74
2018-11-23T07:42:02.497Z,942.79
2018-11-23T07:43:10.508Z,942.75
2018-11-23T07:44:18.576Z,942.77
2018-11-23T07:45:26.841Z,942.76
2018-11-23T07:46:34.683Z,942.73
2018-11-23T07:47:42.840Z,942.74
2018-11-23T07:48:50.792Z,942.71
2018-11-23T07:49:58.856Z,942.74
2018-11-23T07:51:07.014Z,942.67
2018-11-23T07:52:14.967Z,942.68
2018-11-23T07:53:23.025Z,942.66
2018-11-23T07:54:31.178Z,942.64
2018-11-23T07:55:39.161Z,942.67
2018-11-23T07:56:47.368Z,942.65
2018-11-23T07:57:55.337Z,942.62
2018-11-23T07:59:03.511Z,942.64
2018-11-23T08:00:11.443Z,942.69
2018-11-23T08:01:19.495Z,942.70
2018-11-23T08:02:27.930Z,942.72
2018-11-23T08:03:35.621Z,942.74
2018-11-23T08:04:43.661Z,942.73
2018-11-23T08:05:51.638Z,942.73
2018-11-23T08:06:59.798Z,942.71
2018-11-23T08:08:07.950Z,942.74
2018-11-23T08:09:15.827Z,942.76
2018-11-23T08:10:23.873Z,942.76
2018-11-23T08:11:32.034Z,942.77
2018-11-23T08:12:40.124Z,942.85
2018-11-23T08:13:48.053Z,942.87
2018-11-23T08:14:56.216Z,942.89
2018-11-23T08:16:04.156Z,942.98
2018-11-23T08:17:12.323Z,942.99
2018-11-23T08:18:20.505Z,943.01
2018-11-23T08:19:28.450Z,943.03
2018-11-23T08:20:36.524Z,942.99
2018-11-23T08:21:44.538Z,943.01
2018-11-23T08:22:52.525Z,943.01
2018-11-23T08:24:00.655Z,943.02
2018-11-23T08:25:08.631Z,943.02
2018-11-23T08:26:16.685Z,943.02
2018-11-23T08:27:24.832Z,943.03
2018-11-23T08:28:32.800Z,943.01
2018-11-23T08:29:41.052Z,943.06
2018-11-23T08:30:48.914Z,943.06
2018-11-23T08:31:57.064Z,943.13
2018-11-23T08:33:05.032Z,943.14
2018-11-23T08:34:13.193Z,943.12
2018-11-23T08:35:21.356Z,943.18
2018-11-23T08:36:29.276Z,943.14
2018-11-23T08:37:37.361Z,943.10
2018-11-23T08:38:45.371Z,943.14
2018-11-23T08:39:53.459Z,943.13
2018-11-23T08:41:01.577Z,943.10
2018-11-23T08:42:09.599Z,943.05
2018-11-23T08:43:17.642Z,943.12
2018-11-23T08:44:25.656Z,943.04
2018-11-23T08:45:33.807Z,943.03
2018-11-23T08:46:41.922Z,943.04
2018-11-23T08:47:49.863Z,943.02
2018-11-23T08:48:57.924Z,943.00
2018-11-23T08:50:05.902Z,942.96
2018-11-23T08:51:14.040Z,942.93
2018-11-23T08:52:22.260Z,942.91
2018-11-23T08:53:30.176Z,942.87
2018-11-23T08:54:38.230Z,942.82
2018-11-23T08:55:46.185Z,942.82
2018-11-23T08:56:54.228Z,942.80
2018-11-23T08:58:02.460Z,942.81
2018-11-23T08:59:10.466Z,942.76
2018-11-23T09:00:18.432Z,942.79
2018-11-23T09:01:26.790Z,942.80
2018-11-23T09:02:34.732Z,942.76
2018-11-23T09:03:42.603Z,942.76
2018-11-23T09:04:50.749Z,942.81
2018-11-23T09:05:58.765Z,942.78
2018-11-23T09:07:06.873Z,942.75
2018-11-23T09:08:14.946Z,942.75
2018-11-23T09:09:22.888Z,942.75
2018-11-23T09:10:30.953Z,942.75
2018-11-23T09:11:39.022Z,942.75
2018-11-23T09:12:47.143Z,942.65
2018-11-23T09:13:55.294Z,942.67
2018-11-23T09:15:03.215Z,942.62
2018-11-23T09:16:11.238Z,942.67
2018-11-23T09:17:19.436Z,942.70
2018-11-23T09:18:27.445Z,942.68
2018-11-23T09:19:35.601Z,942.70
2018-11-23T09:20:43.486Z,942.67
2018-11-23T09:21:51.619Z,942.65
2018-11-23T09:22:59.685Z,942.70
2018-11-23T09:24:07.706Z,942.66
2018-11-23T09:25:15.993Z,942.63
2018-11-23T09:26:23.848Z,942.64
2018-11-23T09:27:31.876Z,942.63
2018-11-23T09:28:39.984Z,942.58
2018-11-23T09:29:47.962Z,942.57
2018-11-23T09:30:56.109Z,942.53
2018-11-23T09:32:04.054Z,942.50
2018-11-23T09:33:12.429Z,942.48
2018-11-23T09:34:20.312Z,942.45
2018-11-23T09:35:28.699Z,942.42
2018-11-23T09:36:36.409Z,942.41
2018-11-23T09:37:44.361Z,942.40
2018-11-23T09:38:52.520Z,942.35
2018-11-23T09:40:00.505Z,942.32
2018-11-23T09:41:08.710Z,942.35
2018-11-23T09:42:16.615Z,942.37
2018-11-23T09:43:24.769Z,942.40
2018-11-23T09:44:32.720Z,942.40
2018-11-23T09:45:40.884Z,942.39
2018-11-23T09:46:49.042Z,942.34
2018-11-23T09:47:57.132Z,942.31
2018-11-23T09:49:05.060Z,942.32
2018-11-23T09:50:13.043Z,942.26
2018-11-23T09:51:21.197Z,942.25
2018-11-23T09:52:29.286Z,942.23
2018-11-23T09:53:37.302Z,942.22
2018-11-23T09:54:45.311Z,942.16
2018-11-23T09:55:53.417Z,942.13
2018-11-23T09:57:01.494Z,942.08
2018-11-23T09:58:09.598Z,942.06
2018-11-23T09:59:17.552Z,942.07
2018-11-23T10:00:25.656Z,942.04
2018-11-23T10:01:33.704Z,942.06
2018-11-23T10:02:41.890Z,942.05
2018-11-23T10:03:49.819Z,942.01
2018-11-23T10:04:57.894Z,942.05
2018-11-23T10:06:05.857Z,942.02
2018-11-23T10:07:13.998Z,941.99
2018-11-23T10:08:22.171Z,941.94
2018-11-23T10:09:30.129Z,941.98
2018-11-23T10:10:38.175Z,941.99
2018-11-23T10:11:46.248Z,942.01
2018-11-23T10:12:54.395Z,941.95
2018-11-23T10:14:02.331Z,941.93
2018-11-23T10:15:10.528Z,941.98
2018-11-23T10:16:18.497Z,941.93
2018-11-23T10:17:26.523Z,941.92
2018-11-23T10:18:34.610Z,941.92
2018-11-23T10:19:42.553Z,941.92
2018-11-23T10:20:50.708Z,941.90
2018-11-23T10:21:58.703Z,941.85
2018-11-23T10:23:06.836Z,941.83
2018-11-23T10:24:15.052Z,941.82
2018-11-23T10:25:22.969Z,941.80
2018-11-23T10:26:30.991Z,941.76
2018-11-23T10:27:39.113Z,941.69
2018-11-23T10:28:47.130Z,941.65
2018-11-23T10:29:55.294Z,941.60
2018-11-23T10:31:03.242Z,941.56
2018-11-23T10:32:11.212Z,941.61
2018-11-23T10:33:19.372Z,941.60
2018-11-23T10:34:27.528Z,941.61
2018-11-23T10:35:35.672Z,941.56
2018-11-23T10:36:43.545Z,941.59
2018-11-23T10:37:51.612Z,941.54
2018-11-23T10:38:59.632Z,941.52
2018-11-23T10:40:07.640Z,941.52
2018-11-23T10:41:15.879Z,941.50
2018-11-23T10:42:23.840Z,941.46
2018-11-23T10:43:31.795Z,941.46
2018-11-23T10:44:39.963Z,941.39
2018-11-23T10:45:47.920Z,941.39
2018-11-23T10:46:56.253Z,941.34
2018-11-23T10:48:04.113Z,941.32
2018-11-23T10:49:12.159Z,941.35
2018-11-23T10:50:20.326Z,941.36
2018-11-23T10:51:28.410Z,941.32
2018-11-23T10:52:36.357Z,941.29
2018-11-23T10:54:52.436Z,941.28
2018-11-23T10:56:00.522Z,941.24
2018-11-23T10:57:08.678Z,941.27
2018-11-23T10:58:16.574Z,941.23
2018-11-23T10:59:24.717Z,941.25
2018-11-23T11:00:32.731Z,941.22
2018-11-23T11:01:40.835Z,941.29
2018-11-23T11:02:48.962Z,941.30
2018-11-23T11:03:56.958Z,941.29
2018-11-23T11:05:04.980Z,941.26
2018-11-23T11:06:13.166Z,941.24
2018-11-23T11:07:21.031Z,941.16
2018-11-23T11:08:29.192Z,941.14
2018-11-23T11:09:37.345Z,941.12
2018-11-23T11:10:45.310Z,941.11
2018-11-23T11:11:53.321Z,941.05
2018-11-23T11:13:01.533Z,941.04
2018-11-23T11:14:09.399Z,941.01
2018-11-23T11:15:17.550Z,941.02
2018-11-23T11:16:25.545Z,941.01
2018-11-23T11:17:33.703Z,941.03
2018-11-23T11:18:41.632Z,941.03
2018-11-23T11:19:49.777Z,941.02
2018-11-23T11:20:57.819Z,941.03
2018-11-23T11:22:05.958Z,940.94
2018-11-23T11:23:13.977Z,940.93
2018-11-23T11:24:22.040Z,940.89
2018-11-23T11:25:30.038Z,940.84
2018-11-23T11:26:38.047Z,940.89
2018-11-23T11:27:46.199Z,940.85
2018-11-23T11:28:54.159Z,940.83
2018-11-23T11:30:02.224Z,940.81
2018-11-23T11:31:10.301Z,940.76
2018-11-23T11:32:18.358Z,940.77
2018-11-23T11:33:26.515Z,940.75
2018-11-23T11:34:34.473Z,940.70
2018-11-23T11:35:42.529Z,940.68
2018-11-23T11:36:50.589Z,940.67
2018-11-23T11:37:58.730Z,940.71
2018-11-23T11:39:06.823Z,940.68
2018-11-23T11:40:14.771Z,940.68
2018-11-23T11:41:22.836Z,940.68
2018-11-23T11:42:30.891Z,940.67
2018-11-23T11:43:38.947Z,940.64
2018-11-23T11:44:47.117Z,940.65
2018-11-23T11:45:55.084Z,940.62
2018-11-23T11:47:03.132Z,940.61
2018-11-23T11:48:11.202Z,940.63
2018-11-23T11:49:19.409Z,940.61
2018-11-23T11:50:27.420Z,940.62
2018-11-23T11:51:35.366Z,940.64
2018-11-23T11:52:43.476Z,940.65
2018-11-23T11:53:51.501Z,940.64
2018-11-23T11:54:59.562Z,940.66
2018-11-23T11:56:07.661Z,940.66
2018-11-23T11:57:15.676Z,940.62
2018-11-23T11:58:23.713Z,940.62
2018-11-23T11:59:31.808Z,940.61
2018-11-23T12:00:39.869Z,940.60
2018-11-23T12:01:48.122Z,940.62
2018-11-23T12:02:56.084Z,940.58
2018-11-23T12:04:04.143Z,940.62
2018-11-23T12:05:12.119Z,940.62
2018-11-23T12:06:20.173Z,940.62
2018-11-23T12:07:28.419Z,940.61
2018-11-23T12:08:36.324Z,940.62
2018-11-23T12:09:44.448Z,940.54
2018-11-23T12:10:52.425Z,940.50
2018-11-23T12:12:00.509Z,940.44
2018-11-23T12:13:08.722Z,940.41
2018-11-23T12:14:16.693Z,940.32
2018-11-23T12:15:24.719Z,940.35
2018-11-23T12:16:32.742Z,940.34
2018-11-23T12:17:40.969Z,940.31
2018-11-23T12:18:48.878Z,940.33
2018-11-23T12:19:56.995Z,940.32
2018-11-23T12:21:05.120Z,940.26
2018-11-23T12:22:13.136Z,940.24
2018-11-23T12:23:21.593Z,940.23
2018-11-23T12:24:29.202Z,940.17
2018-11-23T12:25:37.300Z,940.14
2018-11-23T12:26:45.351Z,940.10
2018-11-23T12:27:53.455Z,940.08
2018-11-23T12:29:01.572Z,940.01
2018-11-23T12:30:09.530Z,940.00
2018-11-23T12:31:17.609Z,939.97
2018-11-23T12:32:25.656Z,939.96
2018-11-23T12:33:33.674Z,939.92
2018-11-23T12:34:41.842Z,939.93
2018-11-23T12:35:49.760Z,939.93
2018-11-23T12:36:57.944Z,939.91
2018-11-23T12:38:05.968Z,939.93
2018-11-23T12:39:14.197Z,939.94
2018-11-23T12:40:22.191Z,939.93
2018-11-23T12:41:30.160Z,939.92
2018-11-23T12:42:38.213Z,939.88
2018-11-23T12:43:46.267Z,939.84
2018-11-23T12:44:54.337Z,939.86
2018-11-23T12:46:02.456Z,939.88
2018-11-23T12:47:10.474Z,939.85
2018-11-23T12:48:18.501Z,939.84
2018-11-23T12:49:26.504Z,939.84
2018-11-23T12:50:34.558Z,939.84
2018-11-23T12:51:42.738Z,939.84
2018-11-23T12:52:50.773Z,939.86
2018-11-23T12:53:58.757Z,939.86
2018-11-23T12:55:06.894Z,939.86
2018-11-23T12:56:15.076Z,939.88
2018-11-23T12:57:23.091Z,939.85
2018-11-23T12:58:30.992Z,939.92
2018-11-23T12:59:39.156Z,939.85
2018-11-23T13:00:47.150Z,939.84
2018-11-23T13:01:55.157Z,939.84
2018-11-23T13:03:03.421Z,939.81
2018-11-23T13:04:11.357Z,939.76
2018-11-23T13:05:19.471Z,939.80
2018-11-23T13:06:27.544Z,939.79
2018-11-23T13:07:35.603Z,939.80
2018-11-23T13:08:43.596Z,939.84
2018-11-23T13:09:51.655Z,939.77
2018-11-23T13:10:59.906Z,939.75
2018-11-23T13:12:07.824Z,939.73
2018-11-23T13:13:15.868Z,939.73
2018-11-23T13:14:23.961Z,939.71
2018-11-23T13:15:31.962Z,939.66
2018-11-23T13:16:40.051Z,939.68
2018-11-23T13:17:48.209Z,939.63
2018-11-23T13:18:56.196Z,939.62
2018-11-23T13:20:04.228Z,939.58
2018-11-23T13:21:12.205Z,939.58
2018-11-23T13:22:20.369Z,939.56
2018-11-23T13:23:28.515Z,939.55
2018-11-23T13:24:36.396Z,939.52
2018-11-23T13:25:44.540Z,939.49
2018-11-23T13:26:52.986Z,939.46
2018-11-23T13:28:00.665Z,939.45
2018-11-23T13:29:15.960Z,939.46
2018-11-23T13:30:16.723Z,939.46
2018-11-23T13:31:24.860Z,939.42
2018-11-23T13:32:32.861Z,939.41
2018-11-23T13:33:40.888Z,939.41
2018-11-23T13:34:49.144Z,939.44
2018-11-23T13:35:57.096Z,939.38
2018-11-23T13:37:05.165Z,939.41
2018-11-23T13:38:13.129Z,939.39
2018-11-23T13:39:21.240Z,939.34
2018-11-23T13:40:29.340Z,939.34
2018-11-23T13:41:37.420Z,939.35
2018-11-23T13:42:45.619Z,939.36
2018-11-23T13:43:53.521Z,939.34
2018-11-23T13:45:01.492Z,939.37
2018-11-23T13:46:09.683Z,939.34
2018-11-23T13:47:17.664Z,939.35
2018-11-23T13:48:25.684Z,939.34
2018-11-23T13:49:33.793Z,939.36
2018-11-23T13:50:41.889Z,939.37
2018-11-23T13:51:50.090Z,939.39
2018-11-23T13:52:57.971Z,939.36
2018-11-23T13:54:05.975Z,939.36
2018-11-23T13:55:14.175Z,939.34
2018-11-23T13:56:22.099Z,939.33
2018-11-23T13:57:30.316Z,939.34
2018-11-23T13:58:38.297Z,939.31
2018-11-23T13:59:46.370Z,939.26
2018-11-23T14:00:54.404Z,939.24
2018-11-23T14:02:02.513Z,939.23
2018-11-23T14:03:10.559Z,939.20
2018-11-23T14:04:18.612Z,939.21
2018-11-23T14:05:26.654Z,939.19
2018-11-23T14:06:34.640Z,939.19
2018-11-23T14:07:42.904Z,939.22
2018-11-23T14:08:50.766Z,939.28
2018-11-23T14:09:58.831Z,939.26